ENTCENSH

Guest
Details From ENTC - Tromso Langnes
To ENSH - Svolvaer Helle
Flight Number -
Tags generated
Created
Modified
Stats Distance 126 nm / 233 km
Max Altitude 9,800 ft / 2,987 m
Waypoints 3
Social Downloads 1
Likes 0
Share VATSIM

Download

Looking for another format? Having issues loading an existing format? Contact us
Advertisement - Login to hide

Notes

Basic altitude profile: - Ascent Rate: 2500ft/min - Ascent Speed: 250kts - Cruise Altitude: 35000ft - Cruise Speed: 420kts - Descent Rate: 1500ft/min - Descent Speed: 250kts Options: - Use NATs: yes - Use PACOTS: yes - Use low airways: yes - Use high airways: yes

Route

ENTC ATKID ENSH

ID Type Via Altitude Latitude Longitude Leg Dist Tot Dist Heading (true) Name
O ENTC APT - 0 ft / 0 m 69.68287˚ 18.91936˚ - 0 nm - Tromso Langnes
ATKID FIX - 9,800 ft / 2,987 m 68.80609˚ 16.07715˚ 80 nm 80 nm 230° / 228° -
O ENSH APT - 0 ft / 0 m 68.24260˚ 14.66856˚ 45 nm 126 nm 223° / 222° Svolvaer Helle

Altitude Profile

Advertisement - Login to hide

ENTC

Details ICAO ENTC (TOS)
Name Tromso Langnes
Region Norway
Timezone Europe/Oslo (UTC+2.0)
Stats Elevation 30 ft / 9 m (AMSL)
Location 69.683300° 18.919000°
Runways 1
Magnetic Variation 8.951° E

METAR

ENTC 160920Z VRB03KT CAVOK 14/08 Q1006 NOSIG RMK WIND 2600FT 17023KT

Decode

TAF

TAF ENTC 160500Z 1606/1706 03009KT 9999 FEW050 TEMPO 1702/1706 RA

Decode

Departure Runways

ID Width Length Bearing (true/mag) Surface Threshold Overrun Markings Lighting
01 148 ft / 45 m 7,829 ft / 2,386 m 13.04° / 4.09° ASPHALT 427 ft / 130 m 0 ft / 0 m UK-PREC-APP CENTERLINE EDGE THRESHOLD MALSF
19 148 ft / 45 m 7,829 ft / 2,386 m 193.05° / 184.10° ASPHALT 1,286 ft / 392 m 495 ft / 151 m UK-PREC-APP CENTERLINE EDGE THRESHOLD MALSF

ENSH

Details ICAO ENSH (SVJ)
Name Svolvaer Helle
Region Norway
Timezone Unknown (UTC+0.0)
Stats Elevation 29 ft / 9 m (AMSL)
Location 68.242600° 14.668600°
Runways 1
Magnetic Variation 6.192° E

METAR

ENSH 160850Z VRB03KT 9999 -SHRA FEW035 BKN060 16/11 Q1004 RMK WIND 150FT 07013KT

Decode

TAF

Not found

Destination Runways

ID Width Length Bearing (true/mag) Surface Threshold Overrun Markings Lighting
01 98 ft / 30 m 3,095 ft / 943 m 12.29° / 6.10° ASPHALT 223 ft / 68 m 0 ft / 0 m APP CENTERLINE EDGE THRESHOLD MALSF
19 98 ft / 30 m 3,095 ft / 943 m 192.29° / 186.10° ASPHALT 233 ft / 71 m 0 ft / 0 m APP CENTERLINE EDGE THRESHOLD MALSF

Popular Alternatives